createdAt,value
2019-06-20T00:01:27.410Z,3.13
2019-06-20T00:03:56.880Z,3.33
2019-06-20T00:06:47.126Z,2.87
2019-06-20T00:09:16.604Z,2.97
2019-06-20T00:11:45.976Z,2.90
2019-06-20T00:14:54.702Z,2.73
2019-06-20T00:17:44.007Z,3.10
2019-06-20T00:20:52.861Z,2.80
2019-06-20T00:23:22.319Z,2.90
2019-06-20T00:25:51.712Z,3.07
2019-06-20T00:31:17.262Z,3.10
2019-06-20T00:33:47.050Z,3.17
2019-06-20T00:36:17.271Z,3.00
2019-06-20T00:38:47.105Z,2.90
2019-06-20T00:41:16.511Z,3.10
2019-06-20T00:43:45.998Z,2.90
2019-06-20T00:49:10.847Z,3.37
2019-06-20T00:51:40.715Z,3.20
2019-06-20T00:54:10.609Z,3.30
2019-06-20T00:56:39.967Z,3.33
2019-06-20T01:02:18.948Z,2.93
2019-06-20T01:04:48.383Z,3.03
2019-06-20T01:07:17.729Z,2.70
2019-06-20T01:10:26.447Z,3.17
2019-06-20T01:12:55.983Z,2.93
2019-06-20T01:18:20.639Z,2.80
2019-06-20T01:24:04.550Z,2.90
2019-06-20T01:26:34.322Z,2.73
2019-06-20T01:29:03.766Z,2.83
2019-06-20T01:31:33.696Z,3.07
2019-06-20T01:34:42.335Z,2.90
2019-06-20T01:37:11.824Z,3.10
2019-06-20T01:39:41.720Z,2.97
2019-06-20T01:42:11.445Z,3.27
2019-06-20T01:45:20.139Z,2.93
2019-06-20T01:47:49.780Z,2.73
2019-06-20T01:50:19.949Z,2.90
2019-06-20T01:52:49.456Z,3.23
2019-06-20T01:55:18.910Z,2.87
2019-06-20T01:57:48.360Z,2.80
2019-06-20T02:01:05.865Z,3.03
2019-06-20T02:06:37.189Z,2.60
2019-06-20T02:09:47.876Z,3.57
2019-06-20T02:12:17.298Z,2.97
2019-06-20T02:14:47.592Z,2.90
2019-06-20T02:23:17.384Z,2.73
2019-06-20T02:26:26.187Z,2.87
2019-06-20T02:28:56.082Z,2.57
2019-06-20T02:31:25.536Z,2.60
2019-06-20T02:36:51.110Z,2.80
2019-06-20T02:42:30.233Z,2.80
2019-06-20T02:44:59.549Z,2.90
2019-06-20T02:47:29.047Z,3.07
2019-06-20T02:49:58.398Z,2.93
2019-06-20T02:58:43.663Z,2.60
2019-06-20T03:01:13.168Z,2.30
2019-06-20T03:03:42.592Z,2.30
2019-06-20T03:06:51.397Z,1.90
2019-06-20T03:09:21.585Z,2.50
2019-06-20T03:11:51.023Z,2.77
2019-06-20T03:14:21.064Z,2.40
2019-06-20T03:16:50.877Z,2.77
2019-06-20T03:22:15.698Z,2.73
2019-06-20T03:24:45.679Z,2.60
2019-06-20T03:27:15.204Z,2.57
2019-06-20T03:29:44.568Z,2.60
2019-06-20T03:32:33.364Z,2.27
2019-06-20T03:35:03.778Z,2.30
2019-06-20T03:40:47.310Z,2.20
2019-06-20T03:43:58.951Z,2.60
2019-06-20T03:46:27.651Z,2.20
2019-06-20T03:48:57.252Z,2.07
2019-06-20T03:52:06.184Z,2.07
2019-06-20T03:54:36.197Z,2.00
2019-06-20T03:57:45.036Z,2.20
2019-06-20T04:03:09.497Z,2.30
2019-06-20T04:08:48.105Z,2.00
2019-06-20T04:11:17.453Z,2.30
2019-06-20T04:13:46.880Z,2.33
2019-06-20T04:16:16.270Z,2.10
2019-06-20T04:18:45.777Z,2.50
2019-06-20T04:21:15.305Z,2.93
2019-06-20T04:24:27.659Z,2.63
2019-06-20T04:26:55.612Z,2.50
2019-06-20T04:29:25.141Z,3.10
2019-06-20T04:31:54.535Z,2.80
2019-06-20T04:34:24.354Z,2.53
2019-06-20T04:36:53.886Z,2.97
2019-06-20T04:39:23.322Z,2.80
2019-06-20T04:41:52.724Z,2.77
2019-06-20T04:44:23.159Z,2.87
2019-06-20T04:47:32.176Z,2.67
2019-06-20T04:53:11.569Z,2.70
2019-06-20T04:55:40.954Z,3.07
2019-06-20T05:01:00.445Z,3.10
2019-06-20T05:03:30.638Z,2.97
2019-06-20T05:11:32.212Z,3.00
2019-06-20T05:17:16.145Z,3.00
2019-06-20T05:19:45.813Z,2.70
2019-06-20T05:28:07.373Z,3.10
2019-06-20T05:30:37.250Z,3.33
2019-06-20T05:36:41.722Z,3.47
2019-06-20T05:39:11.587Z,3.63
2019-06-20T05:41:41.056Z,4.03
2019-06-20T05:44:10.465Z,4.30
2019-06-20T05:46:40.435Z,4.73
2019-06-20T05:49:10.209Z,4.70
2019-06-20T05:51:40.012Z,5.27
2019-06-20T05:57:26.595Z,6.80
2019-06-20T05:59:56.075Z,6.00
2019-06-20T06:02:26.059Z,7.00
2019-06-20T06:04:55.916Z,7.00
2019-06-20T06:07:25.277Z,7.93
2019-06-20T06:09:54.826Z,6.80
2019-06-20T06:13:03.658Z,6.37
2019-06-20T06:16:03.460Z,6.00
2019-06-20T06:24:35.667Z,6.13
2019-06-20T06:27:05.046Z,5.40
2019-06-20T06:29:34.482Z,5.90
2019-06-20T06:32:04.403Z,6.10
2019-06-20T06:34:33.812Z,5.70
2019-06-20T06:37:42.520Z,5.27
2019-06-20T06:43:27.327Z,5.00
2019-06-20T06:45:56.672Z,4.10
2019-06-20T06:48:26.172Z,4.37
2019-06-20T06:50:55.651Z,2.87
2019-06-20T06:53:25.153Z,3.57
2019-06-20T06:56:34.044Z,3.13
2019-06-20T07:02:12.521Z,3.40
2019-06-20T07:05:21.892Z,3.30
2019-06-20T07:07:51.311Z,2.63
2019-06-20T07:10:41.665Z,2.37
2019-06-20T07:13:11.091Z,3.03
2019-06-20T07:15:41.153Z,2.87
2019-06-20T07:18:10.501Z,3.37
2019-06-20T07:20:39.892Z,2.80
2019-06-20T07:26:24.272Z,2.70
2019-06-20T07:29:05.567Z,2.70
2019-06-20T07:31:46.663Z,2.70
2019-06-20T07:34:16.500Z,2.60
2019-06-20T07:37:25.163Z,2.70
2019-06-20T07:39:55.116Z,2.87
2019-06-20T07:42:24.474Z,2.80
2019-06-20T07:44:54.115Z,2.77
2019-06-20T07:47:23.508Z,2.87
2019-06-20T07:53:01.331Z,3.00
2019-06-20T07:55:20.545Z,2.90
2019-06-20T08:00:47.482Z,2.30
2019-06-20T08:03:16.973Z,2.40
2019-06-20T08:06:25.734Z,2.50
2019-06-20T08:08:55.202Z,2.13
2019-06-20T08:11:24.710Z,2.30
2019-06-20T08:14:33.625Z,2.20
2019-06-20T08:23:19.745Z,2.47
2019-06-20T08:25:49.382Z,3.03
2019-06-20T08:29:10.436Z,2.53
2019-06-20T08:32:09.058Z,3.00
2019-06-20T08:34:50.282Z,2.70
2019-06-20T08:40:31.797Z,3.10
2019-06-20T08:43:02.109Z,3.30
2019-06-20T08:46:11.764Z,3.23
2019-06-20T08:51:57.252Z,3.10
2019-06-20T08:54:26.879Z,3.30
2019-06-20T08:57:35.552Z,3.57
2019-06-20T09:08:49.308Z,2.90
2019-06-20T09:11:58.542Z,3.40
2019-06-20T09:14:29.185Z,3.80
2019-06-20T09:16:59.311Z,3.00
2019-06-20T09:20:09.240Z,3.87
2019-06-20T09:25:52.818Z,3.90
2019-06-20T09:32:10.898Z,4.43
2019-06-20T09:34:40.267Z,4.20
2019-06-20T09:37:09.630Z,4.03
2019-06-20T09:39:39.565Z,4.10
2019-06-20T09:51:20.961Z,3.87
2019-06-20T09:53:51.854Z,3.80
2019-06-20T09:59:27.241Z,3.37
2019-06-20T10:01:50.039Z,3.83
2019-06-20T10:04:21.673Z,3.73
2019-06-20T10:06:52.315Z,3.00
2019-06-20T10:09:22.671Z,3.37
2019-06-20T10:11:54.033Z,3.47
2019-06-20T10:15:03.614Z,3.20
2019-06-20T10:17:33.058Z,3.60
2019-06-20T10:20:02.647Z,3.63
2019-06-20T10:22:52.787Z,5.07
2019-06-20T10:25:23.291Z,3.90
2019-06-20T10:30:48.847Z,3.90
2019-06-20T10:33:19.771Z,3.83
2019-06-20T10:36:28.778Z,3.40
2019-06-20T10:38:59.092Z,3.93
2019-06-20T10:41:28.449Z,3.67
2019-06-20T10:44:37.118Z,3.70
2019-06-20T10:47:06.943Z,3.30
2019-06-20T10:49:36.290Z,3.90
2019-06-20T10:52:45.308Z,4.40
2019-06-20T10:58:18.406Z,3.90
2019-06-20T11:06:52.255Z,3.50
2019-06-20T11:10:01.657Z,3.30
2019-06-20T11:13:11.835Z,3.40
2019-06-20T11:15:42.223Z,3.47
2019-06-20T11:18:52.227Z,3.33
2019-06-20T11:21:21.753Z,3.60
2019-06-20T11:24:30.474Z,3.50
2019-06-20T11:27:00.761Z,3.93
2019-06-20T11:29:30.204Z,4.20
2019-06-20T11:32:39.408Z,4.03
2019-06-20T11:38:24.727Z,4.10
2019-06-20T11:40:54.560Z,4.53
2019-06-20T11:44:03.388Z,4.67
2019-06-20T11:46:35.328Z,4.53
2019-06-20T11:49:04.459Z,4.80
2019-06-20T11:51:34.859Z,4.57
2019-06-20T11:54:05.611Z,5.13
2019-06-20T11:56:34.981Z,5.50
2019-06-20T11:59:43.740Z,4.73
2019-06-20T12:02:24.767Z,4.50
2019-06-20T12:04:54.321Z,4.40
2019-06-20T12:07:23.929Z,4.23
2019-06-20T12:12:49.319Z,4.63
2019-06-20T12:18:22.711Z,4.70
2019-06-20T12:20:52.209Z,4.30
2019-06-20T12:23:22.012Z,4.60
2019-06-20T12:28:46.623Z,4.87
2019-06-20T12:34:33.054Z,4.17
2019-06-20T12:37:42.690Z,4.50
2019-06-20T12:40:52.326Z,5.00
2019-06-20T12:43:22.086Z,4.97
2019-06-20T12:45:51.801Z,4.47
2019-06-20T12:49:00.599Z,4.40
2019-06-20T12:51:29.977Z,5.27
2019-06-20T12:53:59.320Z,4.80
2019-06-20T12:57:08.149Z,5.20
2019-06-20T12:59:38.071Z,5.17
2019-06-20T13:11:13.569Z,5.40
2019-06-20T13:13:44.334Z,5.70
2019-06-20T13:16:14.503Z,4.50
2019-06-20T13:19:23.419Z,4.30
2019-06-20T13:21:52.957Z,4.30
2019-06-20T13:25:01.652Z,5.00
2019-06-20T13:30:32.411Z,4.23
2019-06-20T13:33:01.905Z,3.90
2019-06-20T13:36:11.084Z,4.33
2019-06-20T13:41:50.299Z,4.30
2019-06-20T13:44:21.790Z,4.60
2019-06-20T13:52:55.168Z,4.27
2019-06-20T13:56:04.111Z,4.20
2019-06-20T14:01:29.500Z,3.87
2019-06-20T14:03:59.015Z,4.07
2019-06-20T14:06:42.046Z,4.40
2019-06-20T14:09:12.050Z,4.37
2019-06-20T14:12:20.787Z,4.20
2019-06-20T14:14:50.445Z,3.60
2019-06-20T14:17:20.417Z,3.77
2019-06-20T14:19:51.184Z,2.87
2019-06-20T14:22:20.513Z,2.77
2019-06-20T14:25:29.411Z,2.90
2019-06-20T14:27:59.393Z,2.77
2019-06-20T14:30:29.711Z,2.80
2019-06-20T14:38:57.179Z,2.60
2019-06-20T14:42:06.247Z,2.83
2019-06-20T14:45:15.232Z,2.83
2019-06-20T14:47:45.027Z,3.27
2019-06-20T14:50:53.720Z,3.30
2019-06-20T14:53:23.337Z,3.40
2019-06-20T14:56:32.031Z,3.93
2019-06-20T14:59:02.882Z,3.37
2019-06-20T15:01:32.272Z,2.70
2019-06-20T15:04:01.802Z,2.90
2019-06-20T15:06:32.116Z,2.40
2019-06-20T15:09:13.682Z,2.50
2019-06-20T15:11:45.841Z,2.80
2019-06-20T15:14:15.994Z,2.20
2019-06-20T15:17:25.183Z,2.10
2019-06-20T15:23:04.339Z,2.40
2019-06-20T15:26:13.047Z,2.30
2019-06-20T15:28:42.447Z,2.20
2019-06-20T15:31:11.962Z,2.37
2019-06-20T15:34:20.809Z,2.50
2019-06-20T15:36:51.539Z,2.20
2019-06-20T15:39:21.925Z,2.07
2019-06-20T15:41:51.681Z,2.07
2019-06-20T15:47:17.504Z,1.80
2019-06-20T15:50:26.186Z,2.07
2019-06-20T15:53:34.980Z,1.90
2019-06-20T15:56:04.467Z,1.77
2019-06-20T15:58:34.214Z,1.80
2019-06-20T16:01:43.392Z,1.70
2019-06-20T16:04:12.831Z,1.87
2019-06-20T16:06:42.219Z,1.60
2019-06-20T16:09:11.768Z,1.70
2019-06-20T16:11:41.159Z,1.60
2019-06-20T16:14:13.590Z,1.80
2019-06-20T16:16:43.152Z,1.70
2019-06-20T16:19:13.048Z,1.70
2019-06-20T16:21:42.941Z,1.80
2019-06-20T16:24:12.891Z,1.57
2019-06-20T16:26:42.707Z,1.70
2019-06-20T16:29:13.417Z,1.57
2019-06-20T16:31:42.887Z,1.60
2019-06-20T16:37:21.459Z,1.90
2019-06-20T16:39:51.376Z,1.60
2019-06-20T16:43:00.089Z,1.67
2019-06-20T16:45:29.709Z,2.00
2019-06-20T16:47:59.138Z,2.00
2019-06-20T16:50:28.526Z,1.43
2019-06-20T16:53:01.131Z,1.70
2019-06-20T16:55:30.089Z,1.50
2019-06-20T16:58:39.735Z,1.40
2019-06-20T17:04:12.037Z,1.73
2019-06-20T17:06:41.422Z,1.63
2019-06-20T17:09:10.812Z,2.57
2019-06-20T17:12:19.691Z,2.43
2019-06-20T17:14:49.042Z,1.53
2019-06-20T17:23:10.138Z,1.60
2019-06-20T17:25:39.969Z,1.63
2019-06-20T17:31:44.548Z,1.67
2019-06-20T17:37:29.428Z,2.07
2019-06-20T17:40:38.234Z,1.30
2019-06-20T17:43:07.756Z,1.50
2019-06-20T17:48:46.346Z,1.30
2019-06-20T17:51:15.658Z,1.50
2019-06-20T17:53:45.087Z,1.27
2019-06-20T17:56:17.857Z,2.00
2019-06-20T17:58:46.232Z,1.70
2019-06-20T18:01:55.181Z,1.63
2019-06-20T18:04:26.796Z,1.50
2019-06-20T18:06:55.923Z,1.47
2019-06-20T18:09:25.548Z,1.70
2019-06-20T18:11:55.147Z,1.60
2019-06-20T18:14:24.541Z,1.50
2019-06-20T18:16:54.249Z,1.60
2019-06-20T18:19:23.767Z,1.47
2019-06-20T18:21:53.146Z,1.57
2019-06-20T18:33:21.720Z,1.70
2019-06-20T18:35:51.140Z,2.10
2019-06-20T18:38:59.982Z,2.60
2019-06-20T18:42:09.259Z,2.20
2019-06-20T18:47:29.169Z,1.70
2019-06-20T18:49:59.015Z,1.80
2019-06-20T18:52:28.399Z,2.33
2019-06-20T18:55:37.146Z,1.40
2019-06-20T18:58:07.099Z,1.80
2019-06-20T19:01:16.728Z,2.00
2019-06-20T19:03:58.277Z,1.87
2019-06-20T19:09:23.619Z,1.80
2019-06-20T19:11:53.370Z,1.93
2019-06-20T19:14:22.943Z,2.03
2019-06-20T19:16:52.673Z,2.10
2019-06-20T19:19:22.187Z,1.93
2019-06-20T19:21:51.537Z,2.43
2019-06-20T19:24:21.732Z,1.97
2019-06-20T19:26:51.664Z,2.07
2019-06-20T19:29:21.131Z,1.83
2019-06-20T19:32:30.965Z,3.20
2019-06-20T19:35:02.495Z,7.67
2019-06-20T19:37:32.041Z,7.43
2019-06-20T19:42:58.080Z,2.30
2019-06-20T19:45:27.689Z,2.03
2019-06-20T19:47:57.088Z,1.97
2019-06-20T19:50:26.532Z,1.73
2019-06-20T19:52:56.305Z,1.60
2019-06-20T19:58:32.365Z,2.00
2019-06-20T20:01:01.763Z,2.00
2019-06-20T20:06:38.816Z,1.70
2019-06-20T20:18:20.069Z,1.73
2019-06-20T20:21:28.754Z,2.07
2019-06-20T20:23:58.236Z,1.87
2019-06-20T20:38:47.131Z,1.83
2019-06-20T20:41:17.147Z,2.03
2019-06-20T20:43:46.667Z,2.00
2019-06-20T20:46:35.527Z,2.00
2019-06-20T20:49:05.439Z,2.33
2019-06-20T20:51:34.936Z,2.00
2019-06-20T20:56:59.786Z,1.80
2019-06-20T21:00:08.614Z,1.93
2019-06-20T21:02:38.617Z,2.30
2019-06-20T21:05:08.525Z,2.10
2019-06-20T21:07:39.255Z,2.23
2019-06-20T21:10:49.142Z,2.10
2019-06-20T21:13:18.512Z,2.23
2019-06-20T21:18:43.253Z,2.20
2019-06-20T21:21:31.979Z,2.10
2019-06-20T21:24:10.444Z,2.20
2019-06-20T21:30:28.359Z,2.57
2019-06-20T21:32:59.433Z,2.23
2019-06-20T21:35:29.059Z,2.80
2019-06-20T21:37:59.057Z,2.80
2019-06-20T21:43:37.792Z,2.63
2019-06-20T21:49:22.986Z,2.90
2019-06-20T21:51:52.390Z,2.70
2019-06-20T21:55:01.306Z,3.00
2019-06-20T21:57:30.635Z,3.10
2019-06-20T22:02:56.075Z,3.07
2019-06-20T22:05:25.467Z,3.23
2019-06-20T22:07:54.810Z,3.40
2019-06-20T22:13:19.365Z,3.30
2019-06-20T22:15:48.784Z,3.50
2019-06-20T22:18:18.154Z,3.30
2019-06-20T22:20:47.600Z,3.20
2019-06-20T22:26:26.138Z,3.60
2019-06-20T22:28:55.564Z,3.63
2019-06-20T22:31:25.453Z,4.10
2019-06-20T22:33:54.959Z,3.73
2019-06-20T22:39:57.491Z,3.87
2019-06-20T22:42:26.864Z,3.60
2019-06-20T22:44:56.702Z,3.53
2019-06-20T22:48:05.657Z,3.30
2019-06-20T22:50:35.025Z,3.50
2019-06-20T22:56:39.168Z,3.10
2019-06-20T23:02:22.983Z,2.80
2019-06-20T23:05:31.801Z,3.13
2019-06-20T23:08:02.137Z,3.47
2019-06-20T23:10:32.563Z,3.33
2019-06-20T23:13:41.481Z,4.03
2019-06-20T23:19:25.919Z,3.70
2019-06-20T23:21:56.351Z,3.10
2019-06-20T23:24:44.896Z,3.60
2019-06-20T23:27:15.179Z,3.50
2019-06-20T23:30:24.060Z,3.40
2019-06-20T23:35:48.720Z,4.10
2019-06-20T23:38:18.074Z,4.50
2019-06-20T23:41:26.805Z,4.10
2019-06-20T23:46:57.852Z,4.60
2019-06-20T23:49:27.225Z,4.17
2019-06-20T23:54:37.192Z,3.90
2019-06-20T23:57:08.736Z,4.40
2019-06-20T23:59:38.890Z,4.30
